sensor_id;sensor_type;location;lat;lon;timestamp;P1;durP1;ratioP1;P2;durP2;ratioP2
6821;SDS011;3449;48.728;8.968;2023-08-06T00:01:12;4.90;;;2.40;;
6821;SDS011;3449;48.728;8.968;2023-08-06T00:03:39;12.90;;;4.73;;
6821;SDS011;3449;48.728;8.968;2023-08-06T00:06:05;2.73;;;2.53;;
6821;SDS011;3449;48.728;8.968;2023-08-06T00:08:32;2.50;;;2.10;;
6821;SDS011;3449;48.728;8.968;2023-08-06T00:10:59;3.43;;;1.97;;
6821;SDS011;3449;48.728;8.968;2023-08-06T00:13:26;3.93;;;2.30;;
6821;SDS011;3449;48.728;8.968;2023-08-06T00:15:54;3.50;;;1.93;;
6821;SDS011;3449;48.728;8.968;2023-08-06T00:18:21;2.80;;;2.30;;
6821;SDS011;3449;48.728;8.968;2023-08-06T00:20:48;3.77;;;1.70;;
6821;SDS011;3449;48.728;8.968;2023-08-06T00:23:14;5.70;;;3.13;;
6821;SDS011;3449;48.728;8.968;2023-08-06T00:25:41;2.37;;;2.17;;
6821;SDS011;3449;48.728;8.968;2023-08-06T00:28:08;2.33;;;2.13;;
6821;SDS011;3449;48.728;8.968;2023-08-06T00:30:35;2.77;;;2.10;;
6821;SDS011;3449;48.728;8.968;2023-08-06T00:33:03;2.30;;;1.80;;
6821;SDS011;3449;48.728;8.968;2023-08-06T00:35:30;2.60;;;2.13;;
6821;SDS011;3449;48.728;8.968;2023-08-06T00:37:57;2.23;;;2.00;;
6821;SDS011;3449;48.728;8.968;2023-08-06T00:40:23;3.40;;;2.43;;
6821;SDS011;3449;48.728;8.968;2023-08-06T00:42:50;2.27;;;2.10;;
6821;SDS011;3449;48.728;8.968;2023-08-06T00:45:17;3.30;;;2.90;;
6821;SDS011;3449;48.728;8.968;2023-08-06T00:47:44;4.27;;;2.83;;
6821;SDS011;3449;48.728;8.968;2023-08-06T00:50:12;2.30;;;2.00;;
6821;SDS011;3449;48.728;8.968;2023-08-06T00:52:41;2.90;;;2.23;;
6821;SDS011;3449;48.728;8.968;2023-08-06T00:55:08;3.50;;;2.27;;
6821;SDS011;3449;48.728;8.968;2023-08-06T00:57:35;2.60;;;2.23;;
6821;SDS011;3449;48.728;8.968;2023-08-06T01:00:03;3.03;;;2.23;;
6821;SDS011;3449;48.728;8.968;2023-08-06T01:02:30;3.20;;;2.93;;
6821;SDS011;3449;48.728;8.968;2023-08-06T01:04:57;2.80;;;2.10;;
6821;SDS011;3449;48.728;8.968;2023-08-06T01:07:29;3.87;;;3.57;;
6821;SDS011;3449;48.728;8.968;2023-08-06T01:10:14;6.83;;;4.23;;
6821;SDS011;3449;48.728;8.968;2023-08-06T01:12:50;2.43;;;2.03;;
6821;SDS011;3449;48.728;8.968;2023-08-06T01:15:21;3.47;;;3.17;;
6821;SDS011;3449;48.728;8.968;2023-08-06T01:17:50;2.97;;;2.67;;
6821;SDS011;3449;48.728;8.968;2023-08-06T01:20:18;2.10;;;1.90;;
6821;SDS011;3449;48.728;8.968;2023-08-06T01:22:46;5.30;;;2.57;;
6821;SDS011;3449;48.728;8.968;2023-08-06T01:25:13;2.43;;;2.30;;
6821;SDS011;3449;48.728;8.968;2023-08-06T01:27:43;2.53;;;2.33;;
6821;SDS011;3449;48.728;8.968;2023-08-06T01:30:16;3.07;;;2.77;;
6821;SDS011;3449;48.728;8.968;2023-08-06T01:32:47;2.90;;;2.30;;
6821;SDS011;3449;48.728;8.968;2023-08-06T01:35:17;4.90;;;2.70;;
6821;SDS011;3449;48.728;8.968;2023-08-06T01:37:48;2.20;;;2.00;;
6821;SDS011;3449;48.728;8.968;2023-08-06T01:40:16;2.90;;;2.40;;
6821;SDS011;3449;48.728;8.968;2023-08-06T01:42:43;2.00;;;1.90;;
6821;SDS011;3449;48.728;8.968;2023-08-06T01:45:09;4.43;;;1.90;;
6821;SDS011;3449;48.728;8.968;2023-08-06T01:47:39;4.43;;;2.60;;
6821;SDS011;3449;48.728;8.968;2023-08-06T01:50:06;5.43;;;4.67;;
6821;SDS011;3449;48.728;8.968;2023-08-06T01:52:33;3.07;;;2.77;;
6821;SDS011;3449;48.728;8.968;2023-08-06T01:55:01;2.57;;;2.37;;
6821;SDS011;3449;48.728;8.968;2023-08-06T01:57:28;3.07;;;2.53;;
6821;SDS011;3449;48.728;8.968;2023-08-06T01:59:55;4.33;;;2.67;;
6821;SDS011;3449;48.728;8.968;2023-08-06T02:02:22;3.80;;;3.50;;
6821;SDS011;3449;48.728;8.968;2023-08-06T02:04:48;4.00;;;2.10;;
6821;SDS011;3449;48.728;8.968;2023-08-06T02:07:15;2.70;;;2.37;;
6821;SDS011;3449;48.728;8.968;2023-08-06T02:09:42;3.33;;;2.30;;
6821;SDS011;3449;48.728;8.968;2023-08-06T02:12:10;5.57;;;5.10;;
6821;SDS011;3449;48.728;8.968;2023-08-06T02:14:37;3.47;;;3.20;;
6821;SDS011;3449;48.728;8.968;2023-08-06T02:17:04;6.50;;;2.70;;
6821;SDS011;3449;48.728;8.968;2023-08-06T02:19:31;7.03;;;2.53;;
6821;SDS011;3449;48.728;8.968;2023-08-06T02:21:57;5.10;;;2.70;;
6821;SDS011;3449;48.728;8.968;2023-08-06T02:24:24;4.30;;;2.67;;
6821;SDS011;3449;48.728;8.968;2023-08-06T02:26:51;2.97;;;2.33;;
6821;SDS011;3449;48.728;8.968;2023-08-06T02:29:22;3.23;;;2.13;;
6821;SDS011;3449;48.728;8.968;2023-08-06T02:31:49;2.47;;;2.27;;
6821;SDS011;3449;48.728;8.968;2023-08-06T02:34:16;2.90;;;2.00;;
6821;SDS011;3449;48.728;8.968;2023-08-06T02:36:43;3.97;;;2.10;;
6821;SDS011;3449;48.728;8.968;2023-08-06T02:39:09;2.77;;;2.47;;
6821;SDS011;3449;48.728;8.968;2023-08-06T02:41:36;4.97;;;2.37;;
6821;SDS011;3449;48.728;8.968;2023-08-06T02:44:03;2.80;;;1.90;;
6821;SDS011;3449;48.728;8.968;2023-08-06T02:46:33;2.13;;;1.90;;
6821;SDS011;3449;48.728;8.968;2023-08-06T02:49:00;4.87;;;4.03;;
6821;SDS011;3449;48.728;8.968;2023-08-06T02:51:26;4.40;;;3.57;;
6821;SDS011;3449;48.728;8.968;2023-08-06T02:53:53;6.33;;;2.00;;
6821;SDS011;3449;48.728;8.968;2023-08-06T02:56:22;2.07;;;1.87;;
6821;SDS011;3449;48.728;8.968;2023-08-06T02:58:49;2.93;;;2.73;;
6821;SDS011;3449;48.728;8.968;2023-08-06T03:01:16;2.80;;;2.07;;
6821;SDS011;3449;48.728;8.968;2023-08-06T03:03:44;11.73;;;5.93;;
6821;SDS011;3449;48.728;8.968;2023-08-06T03:06:11;4.77;;;2.30;;
6821;SDS011;3449;48.728;8.968;2023-08-06T03:08:37;2.90;;;2.43;;
6821;SDS011;3449;48.728;8.968;2023-08-06T03:11:04;3.07;;;2.23;;
6821;SDS011;3449;48.728;8.968;2023-08-06T03:13:31;3.70;;;3.40;;
6821;SDS011;3449;48.728;8.968;2023-08-06T03:15:58;2.80;;;2.03;;
6821;SDS011;3449;48.728;8.968;2023-08-06T03:18:26;5.70;;;2.80;;
6821;SDS011;3449;48.728;8.968;2023-08-06T03:20:55;2.43;;;2.23;;
6821;SDS011;3449;48.728;8.968;2023-08-06T03:23:22;2.50;;;1.83;;
6821;SDS011;3449;48.728;8.968;2023-08-06T03:25:48;3.00;;;2.20;;
6821;SDS011;3449;48.728;8.968;2023-08-06T03:28:15;7.33;;;5.97;;
6821;SDS011;3449;48.728;8.968;2023-08-06T03:30:42;2.20;;;2.03;;
6821;SDS011;3449;48.728;8.968;2023-08-06T03:33:09;3.97;;;3.30;;
6821;SDS011;3449;48.728;8.968;2023-08-06T03:35:38;9.67;;;5.73;;
6821;SDS011;3449;48.728;8.968;2023-08-06T03:38:07;2.40;;;1.97;;
6821;SDS011;3449;48.728;8.968;2023-08-06T03:40:34;3.13;;;2.20;;
6821;SDS011;3449;48.728;8.968;2023-08-06T03:43:02;2.90;;;1.77;;
6821;SDS011;3449;48.728;8.968;2023-08-06T03:45:28;2.80;;;2.60;;
6821;SDS011;3449;48.728;8.968;2023-08-06T03:47:55;4.67;;;1.90;;
6821;SDS011;3449;48.728;8.968;2023-08-06T03:50:22;4.07;;;2.17;;
6821;SDS011;3449;48.728;8.968;2023-08-06T03:52:49;2.00;;;1.80;;
6821;SDS011;3449;48.728;8.968;2023-08-06T03:55:20;3.87;;;1.87;;
6821;SDS011;3449;48.728;8.968;2023-08-06T03:57:50;1.80;;;1.70;;
6821;SDS011;3449;48.728;8.968;2023-08-06T04:00:17;4.50;;;1.80;;
6821;SDS011;3449;48.728;8.968;2023-08-06T04:02:44;2.50;;;1.93;;
6821;SDS011;3449;48.728;8.968;2023-08-06T04:05:10;2.47;;;2.27;;
6821;SDS011;3449;48.728;8.968;2023-08-06T04:07:37;4.67;;;2.70;;
6821;SDS011;3449;48.728;8.968;2023-08-06T04:10:04;4.57;;;2.33;;
6821;SDS011;3449;48.728;8.968;2023-08-06T04:12:33;8.40;;;2.50;;
6821;SDS011;3449;48.728;8.968;2023-08-06T04:15:04;6.33;;;4.10;;
6821;SDS011;3449;48.728;8.968;2023-08-06T04:17:32;3.13;;;1.80;;
6821;SDS011;3449;48.728;8.968;2023-08-06T04:19:59;4.53;;;2.10;;
6821;SDS011;3449;48.728;8.968;2023-08-06T04:22:27;2.33;;;1.70;;
6821;SDS011;3449;48.728;8.968;2023-08-06T04:24:53;3.03;;;2.03;;
6821;SDS011;3449;48.728;8.968;2023-08-06T04:27:20;4.60;;;2.13;;
6821;SDS011;3449;48.728;8.968;2023-08-06T04:29:48;3.73;;;1.93;;
6821;SDS011;3449;48.728;8.968;2023-08-06T04:32:15;2.00;;;1.80;;
6821;SDS011;3449;48.728;8.968;2023-08-06T04:34:42;8.43;;;3.57;;
6821;SDS011;3449;48.728;8.968;2023-08-06T04:37:09;9.23;;;2.10;;
6821;SDS011;3449;48.728;8.968;2023-08-06T04:39:36;3.30;;;1.83;;
6821;SDS011;3449;48.728;8.968;2023-08-06T04:42:03;2.10;;;1.50;;
6821;SDS011;3449;48.728;8.968;2023-08-06T04:44:30;2.90;;;1.13;;
6821;SDS011;3449;48.728;8.968;2023-08-06T04:46:59;3.97;;;1.67;;
6821;SDS011;3449;48.728;8.968;2023-08-06T04:49:25;2.23;;;1.80;;
6821;SDS011;3449;48.728;8.968;2023-08-06T04:51:52;1.20;;;1.10;;
6821;SDS011;3449;48.728;8.968;2023-08-06T04:54:19;1.37;;;1.27;;
6821;SDS011;3449;48.728;8.968;2023-08-06T04:56:46;1.03;;;0.93;;
6821;SDS011;3449;48.728;8.968;2023-08-06T04:59:13;4.10;;;1.00;;
6821;SDS011;3449;48.728;8.968;2023-08-06T05:01:39;3.87;;;2.20;;
6821;SDS011;3449;48.728;8.968;2023-08-06T05:04:08;2.00;;;0.77;;
6821;SDS011;3449;48.728;8.968;2023-08-06T05:06:34;1.17;;;1.00;;
6821;SDS011;3449;48.728;8.968;2023-08-06T05:09:03;0.80;;;0.80;;
6821;SDS011;3449;48.728;8.968;2023-08-06T05:11:30;3.67;;;3.37;;
6821;SDS011;3449;48.728;8.968;2023-08-06T05:13:56;2.93;;;0.73;;
6821;SDS011;3449;48.728;8.968;2023-08-06T05:16:23;4.33;;;0.67;;
6821;SDS011;3449;48.728;8.968;2023-08-06T05:18:50;3.60;;;1.60;;
6821;SDS011;3449;48.728;8.968;2023-08-06T05:21:18;1.60;;;0.77;;
6821;SDS011;3449;48.728;8.968;2023-08-06T05:23:45;1.07;;;0.90;;
6821;SDS011;3449;48.728;8.968;2023-08-06T05:26:12;2.20;;;0.60;;
6821;SDS011;3449;48.728;8.968;2023-08-06T05:28:40;3.33;;;0.77;;
6821;SDS011;3449;48.728;8.968;2023-08-06T05:31:09;1.63;;;0.57;;
6821;SDS011;3449;48.728;8.968;2023-08-06T05:33:36;1.00;;;0.67;;
6821;SDS011;3449;48.728;8.968;2023-08-06T05:36:03;0.80;;;0.60;;
6821;SDS011;3449;48.728;8.968;2023-08-06T05:38:31;0.60;;;0.60;;
6821;SDS011;3449;48.728;8.968;2023-08-06T05:40:58;4.43;;;0.70;;
6821;SDS011;3449;48.728;8.968;2023-08-06T05:43:25;0.50;;;0.50;;
6821;SDS011;3449;48.728;8.968;2023-08-06T05:45:52;0.80;;;0.80;;
6821;SDS011;3449;48.728;8.968;2023-08-06T05:48:20;2.53;;;0.80;;
6821;SDS011;3449;48.728;8.968;2023-08-06T05:50:49;2.20;;;0.60;;
6821;SDS011;3449;48.728;8.968;2023-08-06T05:53:18;1.80;;;0.90;;
6821;SDS011;3449;48.728;8.968;2023-08-06T05:55:46;2.60;;;0.50;;
6821;SDS011;3449;48.728;8.968;2023-08-06T05:58:13;0.93;;;0.63;;
6821;SDS011;3449;48.728;8.968;2023-08-06T06:00:40;0.80;;;0.40;;
6821;SDS011;3449;48.728;8.968;2023-08-06T06:03:07;0.70;;;0.50;;
6821;SDS011;3449;48.728;8.968;2023-08-06T06:05:34;4.20;;;0.60;;
6821;SDS011;3449;48.728;8.968;2023-08-06T06:08:03;0.70;;;0.50;;
6821;SDS011;3449;48.728;8.968;2023-08-06T06:10:30;1.40;;;0.50;;
6821;SDS011;3449;48.728;8.968;2023-08-06T06:12:58;0.63;;;0.40;;
6821;SDS011;3449;48.728;8.968;2023-08-06T06:15:25;1.70;;;0.80;;
6821;SDS011;3449;48.728;8.968;2023-08-06T06:17:52;0.93;;;0.40;;
6821;SDS011;3449;48.728;8.968;2023-08-06T06:20:18;0.50;;;0.40;;
6821;SDS011;3449;48.728;8.968;2023-08-06T06:22:45;1.07;;;0.60;;
6821;SDS011;3449;48.728;8.968;2023-08-06T06:25:12;2.53;;;2.20;;
6821;SDS011;3449;48.728;8.968;2023-08-06T06:27:39;2.00;;;1.00;;
6821;SDS011;3449;48.728;8.968;2023-08-06T06:30:08;0.60;;;0.50;;
6821;SDS011;3449;48.728;8.968;2023-08-06T06:32:37;1.10;;;0.70;;
6821;SDS011;3449;48.728;8.968;2023-08-06T06:35:05;0.67;;;0.67;;
6821;SDS011;3449;48.728;8.968;2023-08-06T06:37:32;0.70;;;0.40;;
6821;SDS011;3449;48.728;8.968;2023-08-06T06:39:59;2.00;;;1.13;;
6821;SDS011;3449;48.728;8.968;2023-08-06T06:42:26;2.30;;;0.47;;
6821;SDS011;3449;48.728;8.968;2023-08-06T06:44:52;1.77;;;1.67;;
6821;SDS011;3449;48.728;8.968;2023-08-06T06:47:23;2.13;;;2.03;;
6821;SDS011;3449;48.728;8.968;2023-08-06T06:49:50;0.67;;;0.57;;
6821;SDS011;3449;48.728;8.968;2023-08-06T06:52:17;0.70;;;0.70;;
6821;SDS011;3449;48.728;8.968;2023-08-06T06:54:44;7.47;;;2.50;;
6821;SDS011;3449;48.728;8.968;2023-08-06T06:57:11;0.70;;;0.60;;
6821;SDS011;3449;48.728;8.968;2023-08-06T06:59:37;1.10;;;0.50;;
6821;SDS011;3449;48.728;8.968;2023-08-06T07:02:05;1.80;;;0.90;;
6821;SDS011;3449;48.728;8.968;2023-08-06T07:04:33;2.43;;;2.30;;
6821;SDS011;3449;48.728;8.968;2023-08-06T07:07:00;0.80;;;0.80;;
6821;SDS011;3449;48.728;8.968;2023-08-06T07:09:26;0.50;;;0.43;;
6821;SDS011;3449;48.728;8.968;2023-08-06T07:11:53;1.13;;;1.13;;
6821;SDS011;3449;48.728;8.968;2023-08-06T07:14:20;0.50;;;0.50;;
6821;SDS011;3449;48.728;8.968;2023-08-06T07:16:50;1.00;;;0.50;;
6821;SDS011;3449;48.728;8.968;2023-08-06T07:19:17;2.80;;;0.70;;
6821;SDS011;3449;48.728;8.968;2023-08-06T07:21:46;2.40;;;0.60;;
6821;SDS011;3449;48.728;8.968;2023-08-06T07:24:17;0.63;;;0.50;;
6821;SDS011;3449;48.728;8.968;2023-08-06T07:26:44;0.80;;;0.30;;
6821;SDS011;3449;48.728;8.968;2023-08-06T07:29:11;2.30;;;0.30;;
6821;SDS011;3449;48.728;8.968;2023-08-06T07:31:44;0.60;;;0.47;;
6821;SDS011;3449;48.728;8.968;2023-08-06T07:34:11;0.57;;;0.57;;
6821;SDS011;3449;48.728;8.968;2023-08-06T07:36:38;1.27;;;1.20;;
6821;SDS011;3449;48.728;8.968;2023-08-06T07:39:07;0.70;;;0.40;;
6821;SDS011;3449;48.728;8.968;2023-08-06T07:41:34;0.60;;;0.30;;
6821;SDS011;3449;48.728;8.968;2023-08-06T07:44:01;0.40;;;0.30;;
6821;SDS011;3449;48.728;8.968;2023-08-06T07:46:28;0.70;;;0.40;;
6821;SDS011;3449;48.728;8.968;2023-08-06T07:48:55;0.40;;;0.30;;
6821;SDS011;3449;48.728;8.968;2023-08-06T07:51:22;1.30;;;0.60;;
6821;SDS011;3449;48.728;8.968;2023-08-06T07:53:49;0.50;;;0.40;;
6821;SDS011;3449;48.728;8.968;2023-08-06T07:56:21;1.23;;;0.40;;
6821;SDS011;3449;48.728;8.968;2023-08-06T07:58:48;3.10;;;0.30;;
6821;SDS011;3449;48.728;8.968;2023-08-06T08:01:15;0.50;;;0.40;;
6821;SDS011;3449;48.728;8.968;2023-08-06T08:03:42;2.30;;;0.30;;
6821;SDS011;3449;48.728;8.968;2023-08-06T08:06:09;1.43;;;0.40;;
6821;SDS011;3449;48.728;8.968;2023-08-06T08:08:36;0.60;;;0.50;;
6821;SDS011;3449;48.728;8.968;2023-08-06T08:11:03;2.40;;;0.60;;
6821;SDS011;3449;48.728;8.968;2023-08-06T08:13:35;0.60;;;0.30;;
6821;SDS011;3449;48.728;8.968;2023-08-06T08:16:02;0.40;;;0.30;;
6821;SDS011;3449;48.728;8.968;2023-08-06T08:18:29;0.40;;;0.30;;
6821;SDS011;3449;48.728;8.968;2023-08-06T08:20:56;0.50;;;0.50;;
6821;SDS011;3449;48.728;8.968;2023-08-06T08:23:23;0.87;;;0.30;;
6821;SDS011;3449;48.728;8.968;2023-08-06T08:25:50;0.40;;;0.30;;
6821;SDS011;3449;48.728;8.968;2023-08-06T08:28:20;0.50;;;0.40;;
6821;SDS011;3449;48.728;8.968;2023-08-06T08:34:06;0.60;;;0.50;;
6821;SDS011;3449;48.728;8.968;2023-08-06T08:36:38;0.50;;;0.40;;
6821;SDS011;3449;48.728;8.968;2023-08-06T08:39:05;0.40;;;0.40;;
6821;SDS011;3449;48.728;8.968;2023-08-06T08:41:33;0.70;;;0.60;;
6821;SDS011;3449;48.728;8.968;2023-08-06T08:44:01;2.00;;;0.30;;
6821;SDS011;3449;48.728;8.968;2023-08-06T08:46:29;2.00;;;0.40;;
6821;SDS011;3449;48.728;8.968;2023-08-06T08:49:01;0.40;;;0.30;;
6821;SDS011;3449;48.728;8.968;2023-08-06T08:51:30;0.50;;;0.30;;
6821;SDS011;3449;48.728;8.968;2023-08-06T08:53:57;0.40;;;0.30;;
6821;SDS011;3449;48.728;8.968;2023-08-06T08:56:24;0.70;;;0.30;;
6821;SDS011;3449;48.728;8.968;2023-08-06T08:58:51;2.63;;;0.30;;
6821;SDS011;3449;48.728;8.968;2023-08-06T09:01:20;0.40;;;0.30;;
6821;SDS011;3449;48.728;8.968;2023-08-06T09:03:48;0.40;;;0.30;;
6821;SDS011;3449;48.728;8.968;2023-08-06T09:06:17;0.50;;;0.40;;
6821;SDS011;3449;48.728;8.968;2023-08-06T09:08:49;0.40;;;0.30;;
6821;SDS011;3449;48.728;8.968;2023-08-06T09:11:23;0.50;;;0.30;;
6821;SDS011;3449;48.728;8.968;2023-08-06T09:13:52;1.33;;;0.50;;
6821;SDS011;3449;48.728;8.968;2023-08-06T09:16:20;2.40;;;2.20;;
6821;SDS011;3449;48.728;8.968;2023-08-06T09:18:46;0.50;;;0.50;;
6821;SDS011;3449;48.728;8.968;2023-08-06T09:21:13;1.10;;;0.90;;
6821;SDS011;3449;48.728;8.968;2023-08-06T09:23:41;1.43;;;1.33;;
6821;SDS011;3449;48.728;8.968;2023-08-06T09:26:12;0.87;;;0.87;;
6821;SDS011;3449;48.728;8.968;2023-08-06T09:28:39;0.50;;;0.37;;
6821;SDS011;3449;48.728;8.968;2023-08-06T09:31:08;0.93;;;0.50;;
6821;SDS011;3449;48.728;8.968;2023-08-06T09:33:36;0.50;;;0.37;;
6821;SDS011;3449;48.728;8.968;2023-08-06T09:36:07;2.60;;;2.50;;
6821;SDS011;3449;48.728;8.968;2023-08-06T09:38:37;0.40;;;0.30;;
6821;SDS011;3449;48.728;8.968;2023-08-06T09:41:04;0.60;;;0.40;;
6821;SDS011;3449;48.728;8.968;2023-08-06T09:43:40;6.80;;;0.30;;
6821;SDS011;3449;48.728;8.968;2023-08-06T09:46:11;0.47;;;0.30;;
6821;SDS011;3449;48.728;8.968;2023-08-06T09:48:39;0.40;;;0.30;;
6821;SDS011;3449;48.728;8.968;2023-08-06T09:51:07;0.40;;;0.30;;
6821;SDS011;3449;48.728;8.968;2023-08-06T09:53:35;0.40;;;0.30;;
6821;SDS011;3449;48.728;8.968;2023-08-06T09:56:05;0.50;;;0.40;;
6821;SDS011;3449;48.728;8.968;2023-08-06T09:58:32;0.60;;;0.30;;
6821;SDS011;3449;48.728;8.968;2023-08-06T10:01:00;2.63;;;0.80;;
6821;SDS011;3449;48.728;8.968;2023-08-06T10:03:28;0.50;;;0.40;;
6821;SDS011;3449;48.728;8.968;2023-08-06T10:05:56;0.60;;;0.57;;
6821;SDS011;3449;48.728;8.968;2023-08-06T10:08:27;0.50;;;0.40;;
6821;SDS011;3449;48.728;8.968;2023-08-06T10:10:54;0.60;;;0.30;;
6821;SDS011;3449;48.728;8.968;2023-08-06T10:13:22;0.50;;;0.50;;
6821;SDS011;3449;48.728;8.968;2023-08-06T10:15:50;0.60;;;0.40;;
6821;SDS011;3449;48.728;8.968;2023-08-06T10:18:19;0.93;;;0.40;;
6821;SDS011;3449;48.728;8.968;2023-08-06T10:20:50;0.57;;;0.40;;
6821;SDS011;3449;48.728;8.968;2023-08-06T10:23:19;2.03;;;0.40;;
6821;SDS011;3449;48.728;8.968;2023-08-06T10:25:58;0.63;;;0.63;;
6821;SDS011;3449;48.728;8.968;2023-08-06T10:28:30;2.07;;;1.63;;
6821;SDS011;3449;48.728;8.968;2023-08-06T10:31:01;1.60;;;0.50;;
6821;SDS011;3449;48.728;8.968;2023-08-06T10:33:42;0.80;;;0.60;;
6821;SDS011;3449;48.728;8.968;2023-08-06T10:36:13;0.80;;;0.80;;
6821;SDS011;3449;48.728;8.968;2023-08-06T10:38:44;1.53;;;0.60;;
6821;SDS011;3449;48.728;8.968;2023-08-06T10:41:15;0.50;;;0.50;;
6821;SDS011;3449;48.728;8.968;2023-08-06T10:43:45;0.40;;;0.30;;
6821;SDS011;3449;48.728;8.968;2023-08-06T10:46:21;1.17;;;0.50;;
6821;SDS011;3449;48.728;8.968;2023-08-06T10:48:50;0.40;;;0.30;;
6821;SDS011;3449;48.728;8.968;2023-08-06T10:51:17;2.30;;;0.40;;
6821;SDS011;3449;48.728;8.968;2023-08-06T10:53:44;0.40;;;0.30;;
6821;SDS011;3449;48.728;8.968;2023-08-06T10:56:12;0.40;;;0.30;;
6821;SDS011;3449;48.728;8.968;2023-08-06T10:58:40;1.03;;;1.03;;
6821;SDS011;3449;48.728;8.968;2023-08-06T11:01:07;0.90;;;0.60;;
6821;SDS011;3449;48.728;8.968;2023-08-06T11:03:34;1.47;;;1.37;;
6821;SDS011;3449;48.728;8.968;2023-08-06T11:06:03;0.60;;;0.33;;
6821;SDS011;3449;48.728;8.968;2023-08-06T11:08:32;0.70;;;0.50;;
6821;SDS011;3449;48.728;8.968;2023-08-06T11:11:07;0.60;;;0.40;;
6821;SDS011;3449;48.728;8.968;2023-08-06T11:13:38;1.23;;;0.40;;
6821;SDS011;3449;48.728;8.968;2023-08-06T11:16:05;1.27;;;1.17;;
6821;SDS011;3449;48.728;8.968;2023-08-06T11:18:32;0.50;;;0.40;;
6821;SDS011;3449;48.728;8.968;2023-08-06T11:20:59;1.10;;;0.70;;
6821;SDS011;3449;48.728;8.968;2023-08-06T11:23:28;0.50;;;0.50;;
6821;SDS011;3449;48.728;8.968;2023-08-06T11:25:56;0.80;;;0.57;;
6821;SDS011;3449;48.728;8.968;2023-08-06T11:28:23;0.53;;;0.53;;
6821;SDS011;3449;48.728;8.968;2023-08-06T11:30:50;1.37;;;1.00;;
6821;SDS011;3449;48.728;8.968;2023-08-06T11:33:19;1.33;;;1.23;;
6821;SDS011;3449;48.728;8.968;2023-08-06T11:35:48;3.80;;;0.70;;
6821;SDS011;3449;48.728;8.968;2023-08-06T11:38:15;0.60;;;0.40;;
6821;SDS011;3449;48.728;8.968;2023-08-06T11:40:44;0.90;;;0.70;;
6821;SDS011;3449;48.728;8.968;2023-08-06T11:43:14;0.50;;;0.47;;
6821;SDS011;3449;48.728;8.968;2023-08-06T11:45:41;1.43;;;1.33;;
6821;SDS011;3449;48.728;8.968;2023-08-06T11:48:09;2.17;;;0.90;;
6821;SDS011;3449;48.728;8.968;2023-08-06T11:50:36;1.37;;;1.27;;
6821;SDS011;3449;48.728;8.968;2023-08-06T11:53:04;1.13;;;0.77;;
6821;SDS011;3449;48.728;8.968;2023-08-06T11:55:31;2.10;;;0.80;;
6821;SDS011;3449;48.728;8.968;2023-08-06T11:57:59;0.97;;;0.97;;
6821;SDS011;3449;48.728;8.968;2023-08-06T12:00:30;0.50;;;0.40;;
6821;SDS011;3449;48.728;8.968;2023-08-06T12:02:57;1.10;;;0.57;;
6821;SDS011;3449;48.728;8.968;2023-08-06T12:05:30;7.77;;;3.23;;
6821;SDS011;3449;48.728;8.968;2023-08-06T12:07:59;1.17;;;0.50;;
6821;SDS011;3449;48.728;8.968;2023-08-06T12:10:27;1.27;;;0.67;;
6821;SDS011;3449;48.728;8.968;2023-08-06T12:12:55;1.83;;;0.90;;
6821;SDS011;3449;48.728;8.968;2023-08-06T12:15:23;1.10;;;0.80;;
6821;SDS011;3449;48.728;8.968;2023-08-06T12:17:50;2.10;;;1.93;;
6821;SDS011;3449;48.728;8.968;2023-08-06T12:20:17;1.10;;;1.00;;
6821;SDS011;3449;48.728;8.968;2023-08-06T12:22:44;1.70;;;1.60;;
6821;SDS011;3449;48.728;8.968;2023-08-06T12:25:11;0.97;;;0.80;;
6821;SDS011;3449;48.728;8.968;2023-08-06T12:27:40;1.90;;;0.57;;
6821;SDS011;3449;48.728;8.968;2023-08-06T12:30:08;1.63;;;1.47;;
6821;SDS011;3449;48.728;8.968;2023-08-06T12:32:37;0.80;;;0.50;;
6821;SDS011;3449;48.728;8.968;2023-08-06T12:35:05;0.60;;;0.57;;
6821;SDS011;3449;48.728;8.968;2023-08-06T12:37:33;1.90;;;0.60;;
6821;SDS011;3449;48.728;8.968;2023-08-06T12:40:00;1.33;;;1.23;;
6821;SDS011;3449;48.728;8.968;2023-08-06T12:42:27;0.50;;;0.40;;
6821;SDS011;3449;48.728;8.968;2023-08-06T12:44:57;0.60;;;0.60;;
6821;SDS011;3449;48.728;8.968;2023-08-06T12:47:24;0.50;;;0.40;;
6821;SDS011;3449;48.728;8.968;2023-08-06T12:49:52;2.73;;;0.67;;
6821;SDS011;3449;48.728;8.968;2023-08-06T12:52:19;1.53;;;0.70;;
6821;SDS011;3449;48.728;8.968;2023-08-06T12:54:46;1.00;;;0.90;;
6821;SDS011;3449;48.728;8.968;2023-08-06T12:57:13;0.60;;;0.60;;
6821;SDS011;3449;48.728;8.968;2023-08-06T12:59:40;1.47;;;1.20;;
6821;SDS011;3449;48.728;8.968;2023-08-06T13:02:07;1.40;;;1.30;;
6821;SDS011;3449;48.728;8.968;2023-08-06T13:04:34;0.77;;;0.77;;
6821;SDS011;3449;48.728;8.968;2023-08-06T13:07:02;2.60;;;0.83;;
6821;SDS011;3449;48.728;8.968;2023-08-06T13:09:31;0.87;;;0.87;;
6821;SDS011;3449;48.728;8.968;2023-08-06T13:11:58;1.00;;;0.60;;
6821;SDS011;3449;48.728;8.968;2023-08-06T13:14:25;1.00;;;0.70;;
6821;SDS011;3449;48.728;8.968;2023-08-06T13:16:53;2.47;;;0.60;;
6821;SDS011;3449;48.728;8.968;2023-08-06T13:19:23;0.80;;;0.67;;
6821;SDS011;3449;48.728;8.968;2023-08-06T13:22:03;7.30;;;1.90;;
6821;SDS011;3449;48.728;8.968;2023-08-06T13:24:32;1.07;;;0.70;;
6821;SDS011;3449;48.728;8.968;2023-08-06T13:26:59;23.53;;;3.07;;
6821;SDS011;3449;48.728;8.968;2023-08-06T13:29:26;0.70;;;0.50;;
6821;SDS011;3449;48.728;8.968;2023-08-06T13:31:53;1.57;;;0.90;;
6821;SDS011;3449;48.728;8.968;2023-08-06T13:34:20;0.60;;;0.60;;
6821;SDS011;3449;48.728;8.968;2023-08-06T13:36:47;0.60;;;0.40;;
6821;SDS011;3449;48.728;8.968;2023-08-06T13:39:16;3.00;;;2.80;;
6821;SDS011;3449;48.728;8.968;2023-08-06T13:41:43;0.60;;;0.60;;
6821;SDS011;3449;48.728;8.968;2023-08-06T13:44:10;0.50;;;0.50;;
6821;SDS011;3449;48.728;8.968;2023-08-06T13:46:39;0.57;;;0.57;;
6821;SDS011;3449;48.728;8.968;2023-08-06T13:49:06;0.60;;;0.53;;
6821;SDS011;3449;48.728;8.968;2023-08-06T13:51:33;0.50;;;0.50;;
6821;SDS011;3449;48.728;8.968;2023-08-06T13:54:01;0.50;;;0.50;;
6821;SDS011;3449;48.728;8.968;2023-08-06T13:56:29;2.10;;;0.93;;
6821;SDS011;3449;48.728;8.968;2023-08-06T13:58:58;0.80;;;0.70;;
6821;SDS011;3449;48.728;8.968;2023-08-06T14:01:25;0.60;;;0.60;;
6821;SDS011;3449;48.728;8.968;2023-08-06T14:03:51;0.50;;;0.50;;
6821;SDS011;3449;48.728;8.968;2023-08-06T14:06:19;2.53;;;2.40;;
6821;SDS011;3449;48.728;8.968;2023-08-06T14:08:46;0.90;;;0.70;;
6821;SDS011;3449;48.728;8.968;2023-08-06T14:11:14;0.60;;;0.60;;
6821;SDS011;3449;48.728;8.968;2023-08-06T14:13:43;11.53;;;2.40;;
6821;SDS011;3449;48.728;8.968;2023-08-06T14:16:09;0.70;;;0.70;;
6821;SDS011;3449;48.728;8.968;2023-08-06T14:18:37;0.70;;;0.50;;
6821;SDS011;3449;48.728;8.968;2023-08-06T14:21:04;0.50;;;0.50;;
6821;SDS011;3449;48.728;8.968;2023-08-06T14:23:30;3.70;;;2.20;;
6821;SDS011;3449;48.728;8.968;2023-08-06T14:26:00;4.77;;;0.70;;
6821;SDS011;3449;48.728;8.968;2023-08-06T14:28:27;2.40;;;2.20;;
6821;SDS011;3449;48.728;8.968;2023-08-06T14:30:55;3.03;;;2.07;;
6821;SDS011;3449;48.728;8.968;2023-08-06T14:33:22;2.00;;;1.90;;
6821;SDS011;3449;48.728;8.968;2023-08-06T14:35:52;1.93;;;0.87;;
6821;SDS011;3449;48.728;8.968;2023-08-06T14:38:19;1.50;;;0.67;;
6821;SDS011;3449;48.728;8.968;2023-08-06T14:40:45;2.47;;;2.37;;
6821;SDS011;3449;48.728;8.968;2023-08-06T14:43:12;0.70;;;0.70;;
6821;SDS011;3449;48.728;8.968;2023-08-06T14:45:39;0.70;;;0.70;;
6821;SDS011;3449;48.728;8.968;2023-08-06T14:48:07;0.73;;;0.47;;
6821;SDS011;3449;48.728;8.968;2023-08-06T14:50:34;1.00;;;0.70;;
6821;SDS011;3449;48.728;8.968;2023-08-06T14:53:01;0.93;;;0.90;;
6821;SDS011;3449;48.728;8.968;2023-08-06T14:55:29;0.63;;;0.43;;
6821;SDS011;3449;48.728;8.968;2023-08-06T14:57:56;1.97;;;1.03;;
6821;SDS011;3449;48.728;8.968;2023-08-06T15:00:23;1.00;;;0.83;;
6821;SDS011;3449;48.728;8.968;2023-08-06T15:02:50;2.40;;;2.20;;
6821;SDS011;3449;48.728;8.968;2023-08-06T15:05:18;0.60;;;0.60;;
6821;SDS011;3449;48.728;8.968;2023-08-06T15:07:45;0.70;;;0.60;;
6821;SDS011;3449;48.728;8.968;2023-08-06T15:10:13;0.50;;;0.47;;
6821;SDS011;3449;48.728;8.968;2023-08-06T15:12:40;0.53;;;0.53;;
6821;SDS011;3449;48.728;8.968;2023-08-06T15:15:07;0.60;;;0.60;;
6821;SDS011;3449;48.728;8.968;2023-08-06T15:17:35;0.87;;;0.50;;
6821;SDS011;3449;48.728;8.968;2023-08-06T15:20:02;4.50;;;2.30;;
6821;SDS011;3449;48.728;8.968;2023-08-06T15:22:31;2.93;;;2.73;;